createdAt,value
2018-05-08T00:00:18.868Z,56.06
2018-05-08T00:02:47.166Z,56.20
2018-05-08T00:05:15.470Z,56.00
2018-05-08T00:07:43.763Z,55.54
2018-05-08T00:10:12.098Z,55.08
2018-05-08T00:12:40.414Z,54.77
2018-05-08T00:15:08.701Z,54.94
2018-05-08T00:17:36.997Z,55.08
2018-05-08T00:20:05.344Z,55.68
2018-05-08T00:22:33.615Z,55.47
2018-05-08T00:25:01.897Z,55.33
2018-05-08T00:27:30.170Z,55.51
2018-05-08T00:29:58.453Z,57.09
2018-05-08T00:32:26.745Z,57.46
2018-05-08T00:34:55.048Z,57.40
2018-05-08T00:37:23.287Z,57.10
2018-05-08T00:39:51.567Z,57.01
2018-05-08T00:42:19.843Z,56.30
2018-05-08T00:44:48.125Z,56.41
2018-05-08T00:47:16.383Z,56.36
2018-05-08T00:49:44.672Z,56.19
2018-05-08T00:52:13.044Z,56.40
2018-05-08T00:54:52.993Z,56.44
2018-05-08T00:57:21.268Z,56.65
2018-05-08T00:59:49.551Z,56.53
2018-05-08T01:02:17.850Z,57.18
2018-05-08T01:04:46.225Z,57.22
2018-05-08T01:07:14.486Z,57.88
2018-05-08T01:09:42.769Z,58.13
2018-05-08T01:12:11.034Z,58.27
2018-05-08T01:14:39.330Z,58.28
2018-05-08T01:17:07.739Z,58.14
2018-05-08T01:19:36.028Z,58.11
2018-05-08T01:22:04.378Z,58.51
2018-05-08T01:24:32.658Z,59.04
2018-05-08T01:27:01.044Z,58.70
2018-05-08T01:29:29.302Z,59.09
2018-05-08T01:31:57.635Z,60.04
2018-05-08T01:34:25.942Z,60.29
2018-05-08T01:36:54.290Z,60.18
2018-05-08T01:39:22.605Z,60.29
2018-05-08T01:41:50.882Z,59.95
2018-05-08T01:44:19.149Z,59.47
2018-05-08T01:46:47.422Z,59.38
2018-05-08T01:49:15.716Z,59.80
2018-05-08T01:51:43.982Z,59.82
2018-05-08T01:54:12.263Z,60.01
2018-05-08T01:56:40.560Z,60.23
2018-05-08T01:59:08.814Z,59.86
2018-05-08T02:01:37.096Z,59.40
2018-05-08T02:04:05.366Z,59.50
2018-05-08T02:06:33.711Z,59.30
2018-05-08T02:09:02.335Z,59.15
2018-05-08T02:11:30.682Z,59.09
2018-05-08T02:13:58.964Z,59.47
2018-05-08T02:16:27.285Z,59.64
2018-05-08T02:18:55.566Z,59.55
2018-05-08T02:21:23.837Z,59.26
2018-05-08T02:23:52.139Z,59.51
2018-05-08T02:26:20.493Z,59.49
2018-05-08T02:28:49.185Z,59.70
2018-05-08T02:31:17.446Z,60.52
2018-05-08T02:33:45.764Z,60.30
2018-05-08T02:36:14.061Z,60.29
2018-05-08T02:38:42.367Z,60.53
2018-05-08T02:41:11.167Z,60.22
2018-05-08T02:43:39.505Z,60.34
2018-05-08T02:46:07.830Z,60.58
2018-05-08T02:48:36.103Z,61.18
2018-05-08T02:51:04.397Z,61.73
2018-05-08T02:53:32.663Z,61.58
2018-05-08T02:56:01.015Z,61.36
2018-05-08T02:58:29.309Z,61.77
2018-05-08T03:00:57.592Z,62.72
2018-05-08T03:03:25.877Z,63.33
2018-05-08T03:05:54.743Z,63.43
2018-05-08T03:08:23.027Z,63.19
2018-05-08T03:10:51.311Z,63.58
2018-05-08T03:13:19.590Z,64.06
2018-05-08T03:15:47.875Z,63.25
2018-05-08T03:18:16.174Z,62.36
2018-05-08T03:20:44.503Z,61.98
2018-05-08T03:23:12.786Z,61.73
2018-05-08T03:25:41.070Z,61.99
2018-05-08T03:28:09.337Z,62.58
2018-05-08T03:30:37.628Z,62.71
2018-05-08T03:33:05.925Z,62.85
2018-05-08T03:35:34.274Z,62.80
2018-05-08T03:38:02.567Z,63.34
2018-05-08T03:40:30.870Z,63.93
2018-05-08T03:42:59.128Z,64.06
2018-05-08T03:45:27.423Z,63.75
2018-05-08T03:47:55.675Z,63.91
2018-05-08T03:50:23.974Z,63.96
2018-05-08T03:52:52.333Z,63.98
2018-05-08T03:55:20.622Z,63.38
2018-05-08T03:57:48.898Z,63.09
2018-05-08T04:00:28.725Z,62.50
2018-05-08T04:03:08.800Z,62.26
2018-05-08T04:05:48.691Z,61.96
2018-05-08T04:08:20.989Z,61.87
2018-05-08T04:10:49.201Z,61.51
2018-05-08T04:13:17.613Z,61.19
2018-05-08T04:15:45.863Z,61.24
2018-05-08T04:18:14.133Z,61.40
2018-05-08T04:20:42.443Z,61.40
2018-05-08T04:23:10.721Z,61.96
2018-05-08T04:25:39.031Z,61.73
2018-05-08T04:28:07.338Z,61.62
2018-05-08T04:30:36.470Z,62.00
2018-05-08T04:33:06.149Z,61.84
2018-05-08T04:35:34.738Z,62.18
2018-05-08T04:38:03.177Z,62.25
2018-05-08T04:40:31.478Z,61.76
2018-05-08T04:42:59.783Z,61.63
2018-05-08T04:45:30.009Z,61.59
2018-05-08T04:47:58.427Z,61.74
2018-05-08T04:50:26.834Z,61.57
2018-05-08T04:52:55.937Z,61.32
2018-05-08T04:55:24.329Z,61.36
2018-05-08T04:57:52.692Z,60.98
2018-05-08T05:00:21.075Z,60.85
2018-05-08T05:02:49.341Z,60.51
2018-05-08T05:05:17.681Z,60.90
2018-05-08T05:07:45.965Z,60.23
2018-05-08T05:10:16.111Z,60.27
2018-05-08T05:12:44.501Z,60.09
2018-05-08T05:15:12.869Z,60.25
2018-05-08T05:17:41.146Z,60.19
2018-05-08T05:20:09.766Z,60.18
2018-05-08T05:22:38.020Z,60.15
2018-05-08T05:25:06.464Z,60.05
2018-05-08T05:27:34.777Z,59.83
2018-05-08T05:30:03.153Z,59.88
2018-05-08T05:32:31.451Z,59.77
2018-05-08T05:34:59.810Z,59.41
2018-05-08T05:37:28.137Z,59.31
2018-05-08T05:39:56.382Z,58.97
2018-05-08T05:42:24.726Z,58.57
2018-05-08T05:44:56.145Z,58.19
2018-05-08T05:47:25.139Z,58.35
2018-05-08T05:49:53.463Z,58.23
2018-05-08T05:52:21.859Z,58.19
2018-05-08T05:54:51.373Z,57.83
2018-05-08T05:57:19.780Z,57.43
2018-05-08T05:59:48.025Z,57.26
2018-05-08T06:02:16.539Z,56.93
2018-05-08T06:04:44.769Z,56.54
2018-05-08T06:07:13.134Z,56.24
2018-05-08T06:09:42.557Z,56.09
2018-05-08T06:12:10.864Z,55.68
2018-05-08T06:14:39.144Z,55.51
2018-05-08T06:17:07.531Z,55.51
2018-05-08T06:19:36.685Z,55.24
2018-05-08T06:22:05.062Z,55.11
2018-05-08T06:24:33.951Z,54.90
2018-05-08T06:27:02.280Z,54.51
2018-05-08T06:29:30.649Z,54.35
2018-05-08T06:31:58.999Z,53.73
2018-05-08T06:34:27.282Z,53.63
2018-05-08T06:36:55.614Z,53.29
2018-05-08T06:39:24.770Z,52.72
2018-05-08T06:41:53.108Z,52.36
2018-05-08T06:44:21.448Z,51.81
2018-05-08T06:46:49.650Z,51.63
2018-05-08T06:49:18.047Z,51.19
2018-05-08T06:51:46.351Z,50.67
2018-05-08T06:54:14.660Z,50.28
2018-05-08T06:56:43.247Z,49.85
2018-05-08T06:59:11.590Z,49.44
2018-05-08T07:01:39.854Z,49.58
2018-05-08T07:04:08.145Z,49.10
2018-05-08T07:06:36.465Z,48.90
2018-05-08T07:09:04.847Z,48.53
2018-05-08T07:11:33.167Z,47.99
2018-05-08T07:14:01.523Z,47.77
2018-05-08T07:16:29.767Z,47.28
2018-05-08T07:18:58.142Z,47.19
2018-05-08T07:21:26.420Z,46.72
2018-05-08T07:23:54.734Z,46.91
2018-05-08T07:26:23.091Z,46.03
2018-05-08T07:28:51.380Z,45.33
2018-05-08T07:31:19.740Z,45.22
2018-05-08T07:33:48.001Z,44.88
2018-05-08T07:36:16.544Z,44.29
2018-05-08T07:38:44.886Z,43.71
2018-05-08T07:41:13.698Z,43.68
2018-05-08T07:43:41.975Z,43.05
2018-05-08T07:46:10.278Z,42.39
2018-05-08T07:48:38.602Z,41.50
2018-05-08T07:51:07.523Z,41.91
2018-05-08T07:53:35.831Z,41.40
2018-05-08T07:56:04.140Z,41.39
2018-05-08T07:58:32.492Z,40.91
2018-05-08T08:01:00.798Z,39.12
2018-05-08T08:03:31.493Z,40.42
2018-05-08T08:06:05.008Z,40.54
2018-05-08T08:08:37.368Z,40.50
2018-05-08T08:11:05.887Z,40.71
2018-05-08T08:13:38.346Z,40.61
2018-05-08T08:16:06.941Z,41.04
2018-05-08T08:18:36.647Z,40.75
2018-05-08T08:21:04.929Z,40.63
2018-05-08T08:23:33.192Z,38.98
2018-05-08T08:26:04.820Z,36.57
2018-05-08T08:28:34.418Z,38.75
2018-05-08T08:31:02.744Z,39.37
2018-05-08T08:33:31.095Z,39.53
2018-05-08T08:35:59.409Z,37.69
2018-05-08T08:38:28.552Z,35.56
2018-05-08T08:40:56.938Z,35.09
2018-05-08T08:43:25.163Z,35.83
2018-05-08T08:45:53.748Z,36.40
2018-05-08T08:48:22.230Z,35.72
2018-05-08T08:50:50.497Z,35.12
2018-05-08T08:53:18.861Z,34.99
2018-05-08T08:55:47.306Z,34.33
2018-05-08T08:58:15.594Z,33.66
2018-05-08T09:00:44.781Z,33.46
2018-05-08T09:03:13.196Z,33.28
2018-05-08T09:05:43.236Z,33.19
2018-05-08T09:08:13.235Z,32.67
2018-05-08T09:10:41.475Z,32.65
2018-05-08T09:13:09.795Z,32.67
2018-05-08T09:15:38.230Z,32.36
2018-05-08T09:18:06.609Z,32.31
2018-05-08T09:20:35.003Z,32.00
2018-05-08T09:23:03.384Z,31.72
2018-05-08T09:25:31.723Z,31.60
2018-05-08T09:27:59.979Z,31.92
2018-05-08T09:30:28.242Z,32.39
2018-05-08T09:32:56.565Z,31.60
2018-05-08T09:35:24.833Z,30.91
2018-05-08T09:37:53.126Z,31.19
2018-05-08T09:40:50.688Z,30.71
2018-05-08T09:43:19.508Z,30.67
2018-05-08T09:45:50.083Z,30.67
2018-05-08T09:48:18.577Z,30.40
2018-05-08T09:50:48.793Z,30.13
2018-05-08T09:53:17.154Z,29.67
2018-05-08T09:55:45.632Z,29.91
2018-05-08T09:58:13.935Z,30.26
2018-05-08T10:00:42.343Z,30.29
2018-05-08T10:03:10.599Z,30.13
2018-05-08T10:05:39.046Z,29.84
2018-05-08T10:08:08.102Z,29.80
2018-05-08T10:10:36.505Z,29.66
2018-05-08T10:13:04.908Z,28.76
2018-05-08T10:15:34.401Z,28.75
2018-05-08T10:18:03.889Z,28.94
2018-05-08T10:20:33.564Z,27.99
2018-05-08T10:23:01.881Z,27.90
2018-05-08T10:25:30.209Z,27.99
2018-05-08T10:27:59.429Z,27.94
2018-05-08T10:30:28.816Z,27.89
2018-05-08T10:32:57.432Z,27.46
2018-05-08T10:35:26.701Z,27.53
2018-05-08T10:37:55.562Z,27.73
2018-05-08T10:40:23.939Z,27.11
2018-05-08T10:42:52.551Z,26.81
2018-05-08T10:45:21.417Z,27.19
2018-05-08T10:47:50.193Z,26.95
2018-05-08T10:50:21.424Z,26.72
2018-05-08T10:52:49.677Z,27.20
2018-05-08T10:55:18.823Z,27.04
2018-05-08T10:57:47.150Z,27.24
2018-05-08T11:00:15.442Z,26.63
2018-05-08T11:02:43.858Z,26.64
2018-05-08T11:05:17.341Z,26.33
2018-05-08T11:07:45.589Z,26.23
2018-05-08T11:10:13.914Z,26.34
2018-05-08T11:12:42.169Z,26.19
2018-05-08T11:15:10.489Z,25.94
2018-05-08T11:17:38.776Z,25.83
2018-05-08T11:20:07.077Z,25.55
2018-05-08T11:22:35.840Z,25.63
2018-05-08T11:25:04.110Z,25.34
2018-05-08T11:27:33.277Z,25.96
2018-05-08T11:30:01.632Z,25.04
2018-05-08T11:32:30.004Z,24.95
2018-05-08T11:34:58.433Z,25.10
2018-05-08T11:37:26.866Z,24.30
2018-05-08T11:39:55.134Z,24.38
2018-05-08T11:42:24.081Z,24.63
2018-05-08T11:44:53.734Z,24.72
2018-05-08T11:47:22.074Z,24.68
2018-05-08T11:49:50.355Z,23.54
2018-05-08T11:52:18.689Z,23.49
2018-05-08T11:54:46.935Z,23.80
2018-05-08T11:57:15.272Z,24.20
2018-05-08T11:59:43.519Z,23.78
2018-05-08T12:02:11.840Z,23.58
2018-05-08T12:04:40.145Z,23.77
2018-05-08T12:07:08.466Z,23.73
2018-05-08T12:09:36.768Z,23.77
2018-05-08T12:12:05.061Z,23.73
2018-05-08T12:14:33.763Z,23.45
2018-05-08T12:17:02.684Z,23.00
2018-05-08T12:19:30.948Z,23.39
2018-05-08T12:21:59.323Z,22.07
2018-05-08T12:24:27.591Z,22.08
2018-05-08T12:26:55.942Z,22.12
2018-05-08T12:29:24.270Z,21.79
2018-05-08T12:31:52.543Z,22.02
2018-05-08T12:34:20.848Z,22.18
2018-05-08T12:36:49.136Z,22.27
2018-05-08T12:39:17.415Z,22.40
2018-05-08T12:41:45.793Z,21.99
2018-05-08T12:44:14.615Z,22.79
2018-05-08T12:46:43.253Z,22.89
2018-05-08T12:49:11.542Z,22.27
2018-05-08T12:51:39.881Z,21.71
2018-05-08T12:54:08.298Z,21.40
2018-05-08T12:56:36.606Z,21.35
2018-05-08T12:59:04.882Z,21.62
2018-05-08T13:01:33.197Z,21.09
2018-05-08T13:04:01.479Z,20.89
2018-05-08T13:06:29.833Z,20.43
2018-05-08T13:08:58.220Z,20.16
2018-05-08T13:11:26.501Z,19.45
2018-05-08T13:13:54.755Z,18.94
2018-05-08T13:16:23.064Z,18.50
2018-05-08T13:18:51.461Z,17.92
2018-05-08T13:21:20.380Z,17.52
2018-05-08T13:23:48.930Z,17.45
2018-05-08T13:26:17.245Z,17.93
2018-05-08T13:28:45.512Z,18.28
2018-05-08T13:31:13.897Z,18.22
2018-05-08T13:33:42.155Z,17.97
2018-05-08T13:36:11.032Z,17.79
2018-05-08T13:38:39.301Z,17.25
2018-05-08T13:41:07.594Z,16.23
2018-05-08T13:43:35.957Z,15.89
2018-05-08T13:46:04.308Z,16.43
2018-05-08T13:48:33.127Z,16.56
2018-05-08T13:51:01.504Z,16.65
2018-05-08T13:53:29.824Z,17.37
2018-05-08T13:55:58.097Z,17.05
2018-05-08T13:58:26.369Z,17.07
2018-05-08T14:00:54.678Z,16.59
2018-05-08T14:03:22.909Z,16.83
2018-05-08T14:05:51.275Z,16.58
2018-05-08T14:08:20.582Z,16.13
2018-05-08T14:10:48.906Z,16.47
2018-05-08T14:13:17.250Z,16.40
2018-05-08T14:15:45.704Z,16.25
2018-05-08T14:18:14.079Z,16.32
2018-05-08T14:20:42.382Z,16.17
2018-05-08T14:23:10.850Z,16.24
2018-05-08T14:25:39.145Z,15.97
2018-05-08T14:28:07.416Z,16.09
2018-05-08T14:30:35.769Z,15.69
2018-05-08T14:33:04.109Z,15.80
2018-05-08T14:35:32.418Z,16.53
2018-05-08T14:38:00.759Z,16.39
2018-05-08T14:40:30.101Z,16.18
2018-05-08T14:42:58.384Z,16.41
2018-05-08T14:45:26.816Z,16.18
2018-05-08T14:47:55.114Z,15.91
2018-05-08T14:50:23.386Z,15.84
2018-05-08T14:52:51.715Z,15.51
2018-05-08T14:55:20.039Z,15.23
2018-05-08T14:57:48.458Z,15.55
2018-05-08T15:00:16.737Z,16.26
2018-05-08T15:02:45.006Z,16.32
2018-05-08T15:05:13.320Z,15.56
2018-05-08T15:07:41.819Z,15.23
2018-05-08T15:10:10.697Z,15.21
2018-05-08T15:12:39.582Z,15.32
2018-05-08T15:15:07.937Z,16.22
2018-05-08T15:17:36.343Z,16.40
2018-05-08T15:20:05.912Z,16.38
2018-05-08T15:22:34.298Z,16.21
2018-05-08T15:25:02.593Z,15.79
2018-05-08T15:27:31.098Z,15.38
2018-05-08T15:29:59.382Z,14.86
2018-05-08T15:32:27.780Z,14.73
2018-05-08T15:34:56.138Z,15.14
2018-05-08T15:37:24.415Z,14.37
2018-05-08T15:39:53.547Z,14.78
2018-05-08T15:42:21.852Z,15.05
2018-05-08T15:44:50.872Z,15.85
2018-05-08T15:47:19.507Z,16.03
2018-05-08T15:49:48.561Z,16.34
2018-05-08T15:52:16.822Z,15.98
2018-05-08T15:54:45.144Z,16.30
2018-05-08T15:57:14.278Z,16.68
2018-05-08T15:59:42.669Z,16.94
2018-05-08T16:02:11.003Z,17.27
2018-05-08T16:04:39.262Z,16.96
2018-05-08T16:07:07.651Z,17.47
2018-05-08T16:09:36.042Z,17.65
2018-05-08T16:12:04.306Z,17.23
2018-05-08T16:14:32.674Z,16.88
2018-05-08T16:17:00.935Z,17.15
2018-05-08T16:19:29.246Z,16.92
2018-05-08T16:21:57.619Z,17.53
2018-05-08T16:24:26.653Z,18.31
2018-05-08T16:26:55.007Z,17.77
2018-05-08T16:29:23.308Z,17.86
2018-05-08T16:31:51.598Z,17.64
2018-05-08T16:34:19.858Z,17.54
2018-05-08T16:36:48.147Z,17.48
2018-05-08T16:39:16.462Z,17.91
2018-05-08T16:41:44.792Z,18.15
2018-05-08T16:44:13.103Z,18.69
2018-05-08T16:46:41.379Z,18.75
2018-05-08T16:49:09.669Z,18.64
2018-05-08T16:51:38.001Z,18.33
2018-05-08T16:54:06.464Z,18.11
2018-05-08T16:56:34.762Z,18.64
2018-05-08T16:59:03.037Z,18.96
2018-05-08T17:01:31.743Z,19.05
2018-05-08T17:04:00.027Z,20.16
2018-05-08T17:06:28.364Z,20.83
2018-05-08T17:08:56.718Z,21.17
2018-05-08T17:11:25.067Z,21.63
2018-05-08T17:13:53.348Z,22.10
2018-05-08T17:16:21.631Z,21.94
2018-05-08T17:18:49.966Z,22.73
2018-05-08T17:21:18.270Z,22.51
2018-05-08T17:23:46.574Z,22.86
2018-05-08T17:26:14.983Z,22.98
2018-05-08T17:28:43.331Z,23.00
2018-05-08T17:31:11.672Z,23.39
2018-05-08T17:33:40.036Z,23.21
2018-05-08T17:36:08.310Z,23.27
2018-05-08T17:38:36.640Z,23.46
2018-05-08T17:41:05.716Z,23.28
2018-05-08T17:43:34.019Z,23.27
2018-05-08T17:46:02.690Z,24.06
2018-05-08T17:48:31.032Z,24.37
2018-05-08T17:50:59.283Z,24.58
2018-05-08T17:53:27.613Z,24.83
2018-05-08T17:55:55.903Z,24.78
2018-05-08T17:58:24.243Z,24.81
2018-05-08T18:00:52.521Z,24.90
2018-05-08T18:03:20.804Z,24.65
2018-05-08T18:05:49.115Z,24.94
2018-05-08T18:08:17.391Z,25.25
2018-05-08T18:10:45.671Z,25.57
2018-05-08T18:13:14.047Z,25.87
2018-05-08T18:15:42.352Z,26.21
2018-05-08T18:18:10.624Z,26.77
2018-05-08T18:20:38.982Z,26.81
2018-05-08T18:23:07.273Z,26.81
2018-05-08T18:25:35.618Z,27.39
2018-05-08T18:28:03.831Z,27.71
2018-05-08T18:30:32.159Z,27.83
2018-05-08T18:33:00.466Z,27.83
2018-05-08T18:35:28.765Z,28.10
2018-05-08T18:37:57.091Z,28.55
2018-05-08T18:40:25.391Z,29.09
2018-05-08T18:42:53.658Z,29.36
2018-05-08T18:45:21.983Z,29.55
2018-05-08T18:47:50.281Z,29.72
2018-05-08T18:50:18.614Z,30.18
2018-05-08T18:52:47.364Z,30.29
2018-05-08T18:55:15.709Z,30.29
2018-05-08T18:57:44.105Z,30.40
2018-05-08T19:00:17.958Z,30.38
2018-05-08T19:02:46.210Z,30.12
2018-05-08T19:05:14.507Z,30.03
2018-05-08T19:07:43.647Z,30.05
2018-05-08T19:10:12.011Z,30.16
2018-05-08T19:12:40.424Z,30.19
2018-05-08T19:15:14.396Z,30.42
2018-05-08T19:17:42.698Z,30.34
2018-05-08T19:20:11.009Z,30.87
2018-05-08T19:22:39.441Z,30.61
2018-05-08T19:25:07.766Z,31.17
2018-05-08T19:27:36.741Z,31.39
2018-05-08T19:30:10.687Z,31.70
2018-05-08T19:32:39.082Z,32.04
2018-05-08T19:35:13.026Z,38.84
2018-05-08T19:37:47.054Z,35.79
2018-05-08T19:40:15.310Z,35.21
2018-05-08T19:42:43.650Z,35.25
2018-05-08T19:45:11.911Z,36.81
2018-05-08T19:47:40.307Z,37.04
2018-05-08T19:50:08.579Z,39.83
2018-05-08T19:52:36.961Z,38.02
2018-05-08T19:55:05.231Z,38.83
2018-05-08T19:57:33.618Z,37.39
2018-05-08T20:00:01.891Z,35.97
2018-05-08T20:02:30.248Z,35.62
2018-05-08T20:04:58.512Z,35.35
2018-05-08T20:07:27.234Z,35.32
2018-05-08T20:09:58.039Z,35.55
2018-05-08T20:12:26.333Z,35.27
2018-05-08T20:14:54.641Z,35.01
2018-05-08T20:17:23.005Z,34.87
2018-05-08T20:19:51.406Z,34.54
2018-05-08T20:22:19.748Z,34.80
2018-05-08T20:24:48.014Z,34.92
2018-05-08T20:27:16.310Z,34.86
2018-05-08T20:29:44.556Z,34.63
2018-05-08T20:32:12.887Z,34.98
2018-05-08T20:34:41.213Z,35.12
2018-05-08T20:37:09.502Z,34.99
2018-05-08T20:39:37.777Z,35.01
2018-05-08T20:42:06.120Z,36.49
2018-05-08T20:44:34.441Z,37.33
2018-05-08T20:47:02.710Z,38.49
2018-05-08T20:49:31.006Z,38.95
2018-05-08T20:51:59.287Z,39.67
2018-05-08T20:54:27.627Z,40.39
2018-05-08T20:56:55.966Z,40.66
2018-05-08T20:59:24.247Z,40.50
2018-05-08T21:01:52.551Z,40.54
2018-05-08T21:04:20.862Z,40.90
2018-05-08T21:06:49.115Z,40.85
2018-05-08T21:09:17.448Z,41.60
2018-05-08T21:11:45.718Z,41.56
2018-05-08T21:14:13.996Z,41.63
2018-05-08T21:16:42.369Z,41.68
2018-05-08T21:19:10.704Z,41.70
2018-05-08T21:21:39.007Z,41.68
2018-05-08T21:24:07.315Z,41.78
2018-05-08T21:26:35.566Z,42.45
2018-05-08T21:29:03.854Z,42.58
2018-05-08T21:31:32.143Z,42.57
2018-05-08T21:34:00.390Z,43.18
2018-05-08T21:36:29.327Z,43.49
2018-05-08T21:38:57.679Z,43.88
2018-05-08T21:41:26.331Z,44.00
2018-05-08T21:43:54.606Z,44.18
2018-05-08T21:46:22.905Z,44.71
2018-05-08T21:48:51.218Z,44.72
2018-05-08T21:51:19.501Z,45.02
2018-05-08T21:53:47.834Z,45.38
2018-05-08T21:56:16.129Z,45.50
2018-05-08T21:58:44.427Z,45.67
2018-05-08T22:01:18.468Z,45.10
2018-05-08T22:03:50.439Z,44.86
2018-05-08T22:06:20.467Z,44.80
2018-05-08T22:08:49.175Z,44.93
2018-05-08T22:11:17.845Z,44.92
2018-05-08T22:13:46.175Z,45.65
2018-05-08T22:16:15.584Z,45.66
2018-05-08T22:18:45.056Z,45.63
2018-05-08T22:21:14.724Z,46.24
2018-05-08T22:23:43.999Z,46.30
2018-05-08T22:26:12.403Z,46.45
2018-05-08T22:28:44.173Z,46.80
2018-05-08T22:31:14.891Z,47.06
2018-05-08T22:33:43.198Z,47.05
2018-05-08T22:36:11.460Z,47.15
2018-05-08T22:38:39.751Z,47.40
2018-05-08T22:41:08.046Z,47.53
2018-05-08T22:43:36.491Z,47.36
2018-05-08T22:46:04.796Z,47.48
2018-05-08T22:48:33.080Z,47.51
2018-05-08T22:51:01.428Z,47.43
2018-05-08T22:53:29.712Z,47.51
2018-05-08T22:55:58.001Z,47.97
2018-05-08T22:58:26.286Z,47.88
2018-05-08T23:00:55.347Z,47.89
2018-05-08T23:03:24.621Z,48.43
2018-05-08T23:05:52.897Z,49.37
2018-05-08T23:08:21.163Z,50.06
2018-05-08T23:10:49.436Z,50.05
2018-05-08T23:13:17.734Z,50.53
2018-05-08T23:15:46.018Z,50.25
2018-05-08T23:18:14.360Z,50.46
2018-05-08T23:20:42.585Z,50.37
2018-05-08T23:23:10.907Z,50.86
2018-05-08T23:25:39.190Z,51.00
2018-05-08T23:28:07.499Z,50.52
2018-05-08T23:30:35.764Z,50.30
2018-05-08T23:33:04.023Z,50.41
2018-05-08T23:35:32.303Z,51.25
2018-05-08T23:38:00.643Z,51.16
2018-05-08T23:40:28.933Z,51.35
2018-05-08T23:42:57.205Z,51.36
2018-05-08T23:45:25.472Z,50.86
2018-05-08T23:47:53.734Z,50.73
2018-05-08T23:50:22.026Z,50.88
2018-05-08T23:52:50.324Z,51.25
2018-05-08T23:55:18.582Z,51.54
2018-05-08T23:57:46.875Z,51.53
